Wilmington Island, Georgia
Current Conditions -  °F | °C
As of 7:58 AM on Thursday 23 Oct 2014 (Local Time) from KSVN Reporting Station
Clear Clear  
Wind Chill: 49°   Ceiling: Unl
Heat Index: 49°   Visibility: 10mi
Dew Point: 44°   Wind: 3mph
Humidity: 83%   Direction: 10°N
Pressure: 30.07"   Gusts: NA
Location:  31.996°N, 80.9671°W
Report Text: KSVN 231158Z AUTO 01003KT 10SM CLR 10/07 A3007 RMK AO2 SLP186 T00950067 10124 20086 50007
Loading
Personal Weather Stations






























Interactive Weather Map
Tropical Storm Tracking
New forecast layout! Learn more

10-Day Weather Forecast

Advertisements
Track Severe Weather on mobile